sensor_id;sensor_type;location;lat;lon;timestamp;temperature;humidity
33841;DHT22;20142;28.494;-16.312;2023-11-21T00:01:19;23.00;34.80
33841;DHT22;20142;28.494;-16.312;2023-11-21T00:06:21;22.90;35.30
33841;DHT22;20142;28.494;-16.312;2023-11-21T00:11:23;23.00;35.20
33841;DHT22;20142;28.494;-16.312;2023-11-21T00:16:26;23.00;35.40
33841;DHT22;20142;28.494;-16.312;2023-11-21T00:21:28;23.10;35.40
33841;DHT22;20142;28.494;-16.312;2023-11-21T00:26:29;23.10;35.40
33841;DHT22;20142;28.494;-16.312;2023-11-21T00:31:37;23.10;35.30
33841;DHT22;20142;28.494;-16.312;2023-11-21T00:36:40;23.20;35.50
33841;DHT22;20142;28.494;-16.312;2023-11-21T00:41:42;23.20;35.40
33841;DHT22;20142;28.494;-16.312;2023-11-21T00:46:45;23.20;35.50
33841;DHT22;20142;28.494;-16.312;2023-11-21T00:51:47;23.30;35.20
33841;DHT22;20142;28.494;-16.312;2023-11-21T00:56:49;23.30;35.20
33841;DHT22;20142;28.494;-16.312;2023-11-21T01:01:50;23.20;35.20
33841;DHT22;20142;28.494;-16.312;2023-11-21T01:06:52;23.10;34.80
33841;DHT22;20142;28.494;-16.312;2023-11-21T01:11:54;23.20;35.40
33841;DHT22;20142;28.494;-16.312;2023-11-21T01:16:56;23.10;35.40
33841;DHT22;20142;28.494;-16.312;2023-11-21T01:21:57;23.10;35.40
33841;DHT22;20142;28.494;-16.312;2023-11-21T01:26:59;22.90;35.30
33841;DHT22;20142;28.494;-16.312;2023-11-21T01:32:02;22.90;35.80
33841;DHT22;20142;28.494;-16.312;2023-11-21T01:37:05;22.70;36.20
33841;DHT22;20142;28.494;-16.312;2023-11-21T01:42:07;22.70;36.50
33841;DHT22;20142;28.494;-16.312;2023-11-21T01:47:09;22.80;36.40
33841;DHT22;20142;28.494;-16.312;2023-11-21T01:52:11;22.80;36.70
33841;DHT22;20142;28.494;-16.312;2023-11-21T01:57:13;22.90;36.70
33841;DHT22;20142;28.494;-16.312;2023-11-21T02:02:17;22.80;36.70
33841;DHT22;20142;28.494;-16.312;2023-11-21T02:07:18;22.90;36.60
33841;DHT22;20142;28.494;-16.312;2023-11-21T02:12:20;22.90;36.60
33841;DHT22;20142;28.494;-16.312;2023-11-21T02:17:22;22.90;36.70
33841;DHT22;20142;28.494;-16.312;2023-11-21T02:22:26;22.90;36.80
33841;DHT22;20142;28.494;-16.312;2023-11-21T02:27:30;22.90;36.90
33841;DHT22;20142;28.494;-16.312;2023-11-21T02:32:32;22.80;36.90
33841;DHT22;20142;28.494;-16.312;2023-11-21T02:37:34;22.80;37.20
33841;DHT22;20142;28.494;-16.312;2023-11-21T02:42:36;22.80;37.10
33841;DHT22;20142;28.494;-16.312;2023-11-21T02:47:38;22.70;37.30
33841;DHT22;20142;28.494;-16.312;2023-11-21T02:52:40;22.70;37.70
33841;DHT22;20142;28.494;-16.312;2023-11-21T02:57:42;22.60;37.70
33841;DHT22;20142;28.494;-16.312;2023-11-21T03:02:45;22.70;38.00
33841;DHT22;20142;28.494;-16.312;2023-11-21T08:27:18;22.50;40.00
33841;DHT22;20142;28.494;-16.312;2023-11-21T08:32:20;22.80;40.80
33841;DHT22;20142;28.494;-16.312;2023-11-21T08:37:22;23.00;40.80
33841;DHT22;20142;28.494;-16.312;2023-11-21T08:42:25;23.30;40.60
33841;DHT22;20142;28.494;-16.312;2023-11-21T08:47:26;23.50;39.80
33841;DHT22;20142;28.494;-16.312;2023-11-21T08:52:28;23.60;38.60
33841;DHT22;20142;28.494;-16.312;2023-11-21T08:57:30;23.80;38.10
33841;DHT22;20142;28.494;-16.312;2023-11-21T09:02:32;24.00;37.70
33841;DHT22;20142;28.494;-16.312;2023-11-21T09:07:35;24.10;37.10
33841;DHT22;20142;28.494;-16.312;2023-11-21T09:12:38;24.10;37.10
33841;DHT22;20142;28.494;-16.312;2023-11-21T09:17:39;24.20;36.50
33841;DHT22;20142;28.494;-16.312;2023-11-21T09:22:42;24.20;36.50
33841;DHT22;20142;28.494;-16.312;2023-11-21T09:27:45;24.30;36.30
33841;DHT22;20142;28.494;-16.312;2023-11-21T09:32:48;24.30;37.00
33841;DHT22;20142;28.494;-16.312;2023-11-21T09:37:49;24.40;36.70
33841;DHT22;20142;28.494;-16.312;2023-11-21T09:42:57;24.40;37.30
33841;DHT22;20142;28.494;-16.312;2023-11-21T09:47:59;24.30;38.10
33841;DHT22;20142;28.494;-16.312;2023-11-21T09:53:21;24.30;39.60
33841;DHT22;20142;28.494;-16.312;2023-11-21T09:58:25;24.20;40.00
33841;DHT22;20142;28.494;-16.312;2023-11-21T10:03:27;24.20;41.20
33841;DHT22;20142;28.494;-16.312;2023-11-21T10:08:29;24.20;41.70
33841;DHT22;20142;28.494;-16.312;2023-11-21T10:13:33;24.20;42.40
33841;DHT22;20142;28.494;-16.312;2023-11-21T10:18:35;24.20;43.10
33841;DHT22;20142;28.494;-16.312;2023-11-21T10:23:40;24.30;43.70
33841;DHT22;20142;28.494;-16.312;2023-11-21T10:29:02;24.30;44.00
33841;DHT22;20142;28.494;-16.312;2023-11-21T10:34:15;24.40;43.90
33841;DHT22;20142;28.494;-16.312;2023-11-21T10:39:18;24.30;44.40
33841;DHT22;20142;28.494;-16.312;2023-11-21T10:44:21;24.30;44.50
33841;DHT22;20142;28.494;-16.312;2023-11-21T10:49:25;24.40;45.00
33841;DHT22;20142;28.494;-16.312;2023-11-21T10:54:28;24.50;45.10
33841;DHT22;20142;28.494;-16.312;2023-11-21T10:59:31;24.50;45.90
33841;DHT22;20142;28.494;-16.312;2023-11-21T11:04:34;24.50;46.10
33841;DHT22;20142;28.494;-16.312;2023-11-21T11:09:39;24.60;47.00
33841;DHT22;20142;28.494;-16.312;2023-11-21T11:14:41;24.60;47.60
33841;DHT22;20142;28.494;-16.312;2023-11-21T11:19:45;24.60;47.70
33841;DHT22;20142;28.494;-16.312;2023-11-21T11:31:13;24.60;46.90
33841;DHT22;20142;28.494;-16.312;2023-11-21T11:36:36;24.70;46.60
33841;DHT22;20142;28.494;-16.312;2023-11-21T11:41:44;24.70;45.60
33841;DHT22;20142;28.494;-16.312;2023-11-21T11:46:46;24.70;44.70
33841;DHT22;20142;28.494;-16.312;2023-11-21T11:51:47;24.70;43.90
33841;DHT22;20142;28.494;-16.312;2023-11-21T11:56:49;24.70;43.40
33841;DHT22;20142;28.494;-16.312;2023-11-21T12:01:51;24.60;43.00
33841;DHT22;20142;28.494;-16.312;2023-11-21T12:06:52;24.60;42.90
33841;DHT22;20142;28.494;-16.312;2023-11-21T12:11:56;24.60;42.80
33841;DHT22;20142;28.494;-16.312;2023-11-21T12:16:57;24.70;42.90
33841;DHT22;20142;28.494;-16.312;2023-11-21T12:22:01;24.70;42.50
33841;DHT22;20142;28.494;-16.312;2023-11-21T12:27:03;24.80;42.20
33841;DHT22;20142;28.494;-16.312;2023-11-21T12:32:05;24.80;42.30
33841;DHT22;20142;28.494;-16.312;2023-11-21T12:37:07;24.90;43.10
33841;DHT22;20142;28.494;-16.312;2023-11-21T12:42:09;24.80;43.10
33841;DHT22;20142;28.494;-16.312;2023-11-21T12:47:11;24.80;43.80
33841;DHT22;20142;28.494;-16.312;2023-11-21T12:52:18;24.60;45.10
33841;DHT22;20142;28.494;-16.312;2023-11-21T12:57:20;24.60;46.20
33841;DHT22;20142;28.494;-16.312;2023-11-21T13:02:21;24.60;47.00
33841;DHT22;20142;28.494;-16.312;2023-11-21T13:07:26;24.60;48.20
33841;DHT22;20142;28.494;-16.312;2023-11-21T13:12:28;24.60;49.10
33841;DHT22;20142;28.494;-16.312;2023-11-21T13:17:30;24.60;49.20
33841;DHT22;20142;28.494;-16.312;2023-11-21T13:22:31;24.70;50.00
33841;DHT22;20142;28.494;-16.312;2023-11-21T13:27:34;24.80;50.20
33841;DHT22;20142;28.494;-16.312;2023-11-21T13:32:38;25.00;50.60
33841;DHT22;20142;28.494;-16.312;2023-11-21T13:37:39;25.00;50.80
33841;DHT22;20142;28.494;-16.312;2023-11-21T13:42:42;25.20;50.80
33841;DHT22;20142;28.494;-16.312;2023-11-21T13:47:44;25.20;50.00
33841;DHT22;20142;28.494;-16.312;2023-11-21T13:52:46;25.30;50.00
33841;DHT22;20142;28.494;-16.312;2023-11-21T13:57:48;25.20;50.40
33841;DHT22;20142;28.494;-16.312;2023-11-21T14:02:53;25.30;50.40
33841;DHT22;20142;28.494;-16.312;2023-11-21T14:07:55;25.30;50.40
33841;DHT22;20142;28.494;-16.312;2023-11-21T14:13:03;25.50;50.00
33841;DHT22;20142;28.494;-16.312;2023-11-21T14:18:07;25.40;50.50
33841;DHT22;20142;28.494;-16.312;2023-11-21T14:23:11;25.40;50.30
33841;DHT22;20142;28.494;-16.312;2023-11-21T14:28:13;25.60;50.50
33841;DHT22;20142;28.494;-16.312;2023-11-21T14:33:15;25.50;50.60
33841;DHT22;20142;28.494;-16.312;2023-11-21T14:38:18;25.50;51.30
33841;DHT22;20142;28.494;-16.312;2023-11-21T14:43:20;25.60;51.40
33841;DHT22;20142;28.494;-16.312;2023-11-21T14:48:21;25.50;52.40
33841;DHT22;20142;28.494;-16.312;2023-11-21T14:53:43;25.70;52.70
33841;DHT22;20142;28.494;-16.312;2023-11-21T14:58:54;25.90;52.80
33841;DHT22;20142;28.494;-16.312;2023-11-21T15:04:01;26.10;52.60
33841;DHT22;20142;28.494;-16.312;2023-11-21T15:09:03;26.40;51.80
33841;DHT22;20142;28.494;-16.312;2023-11-21T15:14:07;26.70;51.40
33841;DHT22;20142;28.494;-16.312;2023-11-21T15:19:10;26.60;51.40
33841;DHT22;20142;28.494;-16.312;2023-11-21T15:24:13;26.70;51.50
33841;DHT22;20142;28.494;-16.312;2023-11-21T15:29:15;26.60;51.30
33841;DHT22;20142;28.494;-16.312;2023-11-21T15:34:17;26.70;51.30
33841;DHT22;20142;28.494;-16.312;2023-11-21T15:39:19;26.80;50.80
33841;DHT22;20142;28.494;-16.312;2023-11-21T15:44:23;26.70;51.00
33841;DHT22;20142;28.494;-16.312;2023-11-21T15:49:27;26.60;51.10
33841;DHT22;20142;28.494;-16.312;2023-11-21T15:54:31;26.40;51.00
33841;DHT22;20142;28.494;-16.312;2023-11-21T15:59:34;26.30;51.40
33841;DHT22;20142;28.494;-16.312;2023-11-21T16:04:36;26.20;51.00
33841;DHT22;20142;28.494;-16.312;2023-11-21T16:09:38;26.00;51.30
33841;DHT22;20142;28.494;-16.312;2023-11-21T16:14:43;25.70;51.40
33841;DHT22;20142;28.494;-16.312;2023-11-21T16:19:49;25.60;51.60
33841;DHT22;20142;28.494;-16.312;2023-11-21T16:24:50;25.40;52.30
33841;DHT22;20142;28.494;-16.312;2023-11-21T16:29:52;25.20;53.00
33841;DHT22;20142;28.494;-16.312;2023-11-21T16:34:54;25.20;53.60
33841;DHT22;20142;28.494;-16.312;2023-11-21T16:39:58;25.10;54.30
33841;DHT22;20142;28.494;-16.312;2023-11-21T16:45:00;24.90;55.00
33841;DHT22;20142;28.494;-16.312;2023-11-21T16:50:02;24.80;55.00
33841;DHT22;20142;28.494;-16.312;2023-11-21T16:55:04;24.80;55.00
33841;DHT22;20142;28.494;-16.312;2023-11-21T17:00:07;24.70;55.20
33841;DHT22;20142;28.494;-16.312;2023-11-21T17:05:12;24.70;54.60
33841;DHT22;20142;28.494;-16.312;2023-11-21T17:10:14;24.70;54.40
33841;DHT22;20142;28.494;-16.312;2023-11-21T17:15:16;24.60;54.20
33841;DHT22;20142;28.494;-16.312;2023-11-21T17:20:18;24.60;54.10
33841;DHT22;20142;28.494;-16.312;2023-11-21T17:25:20;24.50;53.80
33841;DHT22;20142;28.494;-16.312;2023-11-21T17:30:21;24.40;53.30
33841;DHT22;20142;28.494;-16.312;2023-11-21T17:35:23;24.30;52.90
33841;DHT22;20142;28.494;-16.312;2023-11-21T17:40:25;24.20;52.50
33841;DHT22;20142;28.494;-16.312;2023-11-21T17:45:27;24.00;52.20
33841;DHT22;20142;28.494;-16.312;2023-11-21T17:50:29;23.80;51.90
33841;DHT22;20142;28.494;-16.312;2023-11-21T17:55:31;23.70;51.50
33841;DHT22;20142;28.494;-16.312;2023-11-21T18:00:32;23.60;51.80
33841;DHT22;20142;28.494;-16.312;2023-11-21T18:05:34;23.60;51.10
33841;DHT22;20142;28.494;-16.312;2023-11-21T18:10:38;23.40;50.90
33841;DHT22;20142;28.494;-16.312;2023-11-21T18:15:40;23.30;50.50
33841;DHT22;20142;28.494;-16.312;2023-11-21T18:20:41;23.40;50.30
33841;DHT22;20142;28.494;-16.312;2023-11-21T18:25:44;23.30;50.10
33841;DHT22;20142;28.494;-16.312;2023-11-21T18:30:46;23.20;50.10
33841;DHT22;20142;28.494;-16.312;2023-11-21T18:35:49;23.10;49.80
33841;DHT22;20142;28.494;-16.312;2023-11-21T18:40:51;23.00;49.40
33841;DHT22;20142;28.494;-16.312;2023-11-21T18:45:52;23.00;49.70
33841;DHT22;20142;28.494;-16.312;2023-11-21T18:50:55;23.00;49.60
33841;DHT22;20142;28.494;-16.312;2023-11-21T18:55:57;23.00;49.60
33841;DHT22;20142;28.494;-16.312;2023-11-21T19:00:59;23.00;49.80
33841;DHT22;20142;28.494;-16.312;2023-11-21T19:06:01;22.90;50.10
33841;DHT22;20142;28.494;-16.312;2023-11-21T19:11:02;22.70;50.50
33841;DHT22;20142;28.494;-16.312;2023-11-21T19:16:04;22.70;51.00
33841;DHT22;20142;28.494;-16.312;2023-11-21T19:21:12;22.70;51.60
33841;DHT22;20142;28.494;-16.312;2023-11-21T19:26:17;22.70;52.10
33841;DHT22;20142;28.494;-16.312;2023-11-21T19:31:20;22.70;52.40
33841;DHT22;20142;28.494;-16.312;2023-11-21T19:36:22;22.60;52.80
33841;DHT22;20142;28.494;-16.312;2023-11-21T19:41:24;22.50;52.90
33841;DHT22;20142;28.494;-16.312;2023-11-21T19:46:26;22.60;54.20
33841;DHT22;20142;28.494;-16.312;2023-11-21T19:51:27;22.60;52.40
33841;DHT22;20142;28.494;-16.312;2023-11-21T19:56:29;22.80;53.50
33841;DHT22;20142;28.494;-16.312;2023-11-21T20:01:32;22.80;53.10
33841;DHT22;20142;28.494;-16.312;2023-11-21T20:06:39;22.80;52.70
33841;DHT22;20142;28.494;-16.312;2023-11-21T20:11:41;22.60;51.30
33841;DHT22;20142;28.494;-16.312;2023-11-21T20:16:44;22.60;52.00
33841;DHT22;20142;28.494;-16.312;2023-11-21T20:21:51;22.60;51.20
33841;DHT22;20142;28.494;-16.312;2023-11-21T20:26:55;22.40;50.40
33841;DHT22;20142;28.494;-16.312;2023-11-21T20:31:58;22.50;50.90
33841;DHT22;20142;28.494;-16.312;2023-11-21T20:36:59;22.40;50.20
33841;DHT22;20142;28.494;-16.312;2023-11-21T20:42:02;22.50;49.60
33841;DHT22;20142;28.494;-16.312;2023-11-21T20:47:04;22.30;48.80
33841;DHT22;20142;28.494;-16.312;2023-11-21T20:52:06;22.20;48.30
33841;DHT22;20142;28.494;-16.312;2023-11-21T20:57:08;22.10;48.30
33841;DHT22;20142;28.494;-16.312;2023-11-21T21:02:10;22.10;48.10
33841;DHT22;20142;28.494;-16.312;2023-11-21T21:07:13;21.90;47.90
33841;DHT22;20142;28.494;-16.312;2023-11-21T21:12:15;22.00;48.20
33841;DHT22;20142;28.494;-16.312;2023-11-21T21:17:17;21.80;47.90
33841;DHT22;20142;28.494;-16.312;2023-11-21T21:22:19;21.70;48.30
33841;DHT22;20142;28.494;-16.312;2023-11-21T21:27:20;21.60;48.20
33841;DHT22;20142;28.494;-16.312;2023-11-21T21:32:23;21.60;48.30
33841;DHT22;20142;28.494;-16.312;2023-11-21T21:37:25;21.60;48.30
33841;DHT22;20142;28.494;-16.312;2023-11-21T21:42:27;21.60;48.60
33841;DHT22;20142;28.494;-16.312;2023-11-21T21:47:29;21.60;48.80
33841;DHT22;20142;28.494;-16.312;2023-11-21T21:52:35;21.50;49.00
33841;DHT22;20142;28.494;-16.312;2023-11-21T21:57:37;21.50;49.50
33841;DHT22;20142;28.494;-16.312;2023-11-21T22:02:42;21.50;49.70
33841;DHT22;20142;28.494;-16.312;2023-11-21T22:07:44;21.40;50.00
33841;DHT22;20142;28.494;-16.312;2023-11-21T22:12:46;21.30;50.30
33841;DHT22;20142;28.494;-16.312;2023-11-21T22:17:47;21.30;50.80
33841;DHT22;20142;28.494;-16.312;2023-11-21T22:22:51;21.20;51.30
33841;DHT22;20142;28.494;-16.312;2023-11-21T22:27:53;21.10;51.80
33841;DHT22;20142;28.494;-16.312;2023-11-21T22:32:55;21.10;52.20
33841;DHT22;20142;28.494;-16.312;2023-11-21T22:37:58;20.90;52.50
33841;DHT22;20142;28.494;-16.312;2023-11-21T22:43:00;20.90;53.30
33841;DHT22;20142;28.494;-16.312;2023-11-21T22:48:02;20.90;53.80
33841;DHT22;20142;28.494;-16.312;2023-11-21T22:53:03;20.90;53.40
33841;DHT22;20142;28.494;-16.312;2023-11-21T22:58:05;21.00;53.60
33841;DHT22;20142;28.494;-16.312;2023-11-21T23:03:08;21.10;53.30
33841;DHT22;20142;28.494;-16.312;2023-11-21T23:08:09;21.00;53.40
33841;DHT22;20142;28.494;-16.312;2023-11-21T23:13:12;20.80;53.90
33841;DHT22;20142;28.494;-16.312;2023-11-21T23:18:14;20.90;54.00
33841;DHT22;20142;28.494;-16.312;2023-11-21T23:23:16;20.80;54.50
33841;DHT22;20142;28.494;-16.312;2023-11-21T23:28:18;20.70;54.40
33841;DHT22;20142;28.494;-16.312;2023-11-21T23:33:20;20.70;54.80
33841;DHT22;20142;28.494;-16.312;2023-11-21T23:38:22;20.70;54.60
33841;DHT22;20142;28.494;-16.312;2023-11-21T23:43:24;20.70;54.20
33841;DHT22;20142;28.494;-16.312;2023-11-21T23:48:27;20.70;54.60
33841;DHT22;20142;28.494;-16.312;2023-11-21T23:53:29;20.60;54.70
33841;DHT22;20142;28.494;-16.312;2023-11-21T23:58:31;20.50;54.70
